Terminal Aerodrome Forecast
Issued by NWS San Angelo, TX

Home | Current Version | Previous Version | Text Only | Print | Product List | Glossary On
Versions: 1 2 3 4 5 6 7 8 9 10 11 12
247
FTUS44 KSJT 081120
TAFABI
TAF
KABI 081120Z 0812/0912 34008KT P6SM SKC
     FM081600 34015G21KT P6SM SKC
     FM082300 33005KT P6SM SKC=

USA.gov is the U.S. government's official web portal to all federal, state and local government web resources and services.